Time;durP1;ratioP1;P1;durP2;ratioP2;P2;SDS_P1;SDS_P2;PMS_P1;PMS_P2;Temp;Humidity;BMP_temperature;BMP_pressure;BME280_temperature;BME280_humidity;BME280_pressure;Samples;Min_cycle;Max_cycle;Signal;HPM_P1;HPM_P2
2022/03/09 00:00:51;;;;;;;27.75;10.13;;;1.00;99.90;;;;;;5113465;28;20139;-84
2022/03/09 00:03:17;;;;;;;23.70;9.98;;;1.00;99.90;;;;;;5112867;28;20028;-84
2022/03/09 00:05:43;;;;;;;26.33;9.13;;;0.90;99.90;;;;;;5113158;28;20023;-84
2022/03/09 00:08:28;;;;;;;18.13;8.27;;;1.00;99.90;;;;;;5113311;28;20482;-84
2022/03/09 00:10:54;;;;;;;17.63;7.65;;;0.90;99.90;;;;;;5094817;28;20118;-83
2022/03/09 00:13:19;;;;;;;14.77;7.15;;;0.90;99.90;;;;;;5112925;28;20122;-84
2022/03/09 00:16:03;;;;;;;12.50;6.57;;;0.90;99.90;;;;;;5113328;28;20023;-83
2022/03/09 00:18:28;;;;;;;13.50;6.85;;;1.00;99.90;;;;;;5113090;28;20027;-84
2022/03/09 00:20:54;;;;;;;16.42;7.20;;;0.90;99.90;;;;;;5112797;28;20042;-84
2022/03/09 00:23:29;;;;;;;9.68;5.40;;;0.90;99.90;;;;;;5113153;28;20357;-84
2022/03/09 00:25:55;;;;;;;12.63;5.70;;;0.90;99.90;;;;;;5094621;28;20505;-84
2022/03/09 00:28:20;;;;;;;13.07;5.93;;;0.90;99.90;;;;;;5112990;28;20028;-84
2022/03/09 00:30:52;;;;;;;9.63;5.30;;;1.00;99.90;;;;;;5113155;28;20031;-84
2022/03/09 00:33:17;;;;;;;10.40;5.70;;;1.00;99.90;;;;;;5094672;28;20026;-84
2022/03/09 00:35:44;;;;;;;7.30;4.78;;;1.10;99.90;;;;;;5094529;28;20475;-84
2022/03/09 00:38:10;;;;;;;10.27;5.35;;;1.10;99.90;;;;;;5111666;28;20032;-84
2022/03/09 00:40:55;;;;;;;10.75;5.10;;;1.10;99.90;;;;;;5112736;28;20031;-84
2022/03/09 00:43:21;;;;;;;8.85;5.22;;;1.10;99.90;;;;;;5113117;28;20054;-84
2022/03/09 00:45:47;;;;;;;9.65;5.28;;;1.10;99.90;;;;;;5113065;28;20051;-84
2022/03/09 00:48:34;;;;;;;10.75;5.18;;;1.10;99.90;;;;;;5112854;28;20523;-84
2022/03/09 00:51:00;;;;;;;8.75;4.97;;;1.00;99.90;;;;;;5112876;28;20027;-84
2022/03/09 00:53:26;;;;;;;11.98;5.03;;;1.00;99.90;;;;;;5112862;28;20497;-83
2022/03/09 00:56:02;;;;;;;7.60;4.80;;;1.00;99.90;;;;;;5094659;28;20445;-83
2022/03/09 00:58:27;;;;;;;9.80;4.88;;;0.90;99.90;;;;;;5113087;28;20106;-84
2022/03/09 01:00:54;;;;;;;11.70;4.60;;;0.80;99.90;;;;;;5116704;28;20104;-84
2022/03/09 01:03:20;;;;;;;9.98;5.13;;;0.80;99.90;;;;;;5116457;28;20463;-83
2022/03/09 01:05:46;;;;;;;9.20;4.55;;;0.80;99.90;;;;;;5116269;28;20115;-83
2022/03/09 01:08:12;;;;;;;8.68;4.30;;;0.80;99.90;;;;;;5116458;28;20051;-83
2022/03/09 01:10:38;;;;;;;8.55;4.45;;;0.90;99.90;;;;;;5116705;28;20591;-83
2022/03/09 01:13:04;;;;;;;11.38;4.28;;;1.00;99.90;;;;;;5116549;28;20039;-84
2022/03/09 01:15:31;;;;;;;8.77;4.57;;;1.10;99.90;;;;;;5116343;28;20379;-83
2022/03/09 01:17:56;;;;;;;7.10;4.40;;;1.20;99.90;;;;;;5098289;28;20031;-84
2022/03/09 01:20:28;;;;;;;6.55;3.80;;;1.30;99.90;;;;;;5116301;28;20541;-83
2022/03/09 01:22:54;;;;;;;12.07;4.47;;;1.30;99.90;;;;;;5098210;28;20073;-84
2022/03/09 01:25:19;;;;;;;11.02;4.55;;;1.40;99.90;;;;;;5098049;28;20401;-84
2022/03/09 01:27:49;;;;;;;6.65;4.32;;;1.50;99.90;;;;;;5116227;28;20027;-84
2022/03/09 01:30:15;;;;;;;10.38;4.30;;;1.50;99.90;;;;;;5097985;28;20019;-84
2022/03/09 01:32:41;;;;;;;6.70;4.60;;;1.50;99.90;;;;;;5097907;28;20031;-84
2022/03/09 01:35:18;;;;;;;8.50;4.65;;;1.50;99.90;;;;;;5115718;28;20031;-83
2022/03/09 01:37:46;;;;;;;8.68;4.82;;;1.40;99.90;;;;;;5077512;28;20036;-84
2022/03/09 01:40:12;;;;;;;9.73;4.43;;;1.40;99.90;;;;;;5113657;28;20092;-84
2022/03/09 01:42:38;;;;;;;7.25;4.72;;;1.20;99.90;;;;;;5115652;28;20024;-84
2022/03/09 01:45:06;;;;;;;6.13;4.13;;;1.10;99.90;;;;;;5097855;28;20118;-84
2022/03/09 01:47:32;;;;;;;9.48;5.07;;;1.10;99.90;;;;;;5097683;28;20067;-84
2022/03/09 01:50:14;;;;;;;6.38;4.32;;;1.10;99.90;;;;;;5116024;28;20147;-84
2022/03/09 01:52:41;;;;;;;9.38;4.68;;;1.00;99.90;;;;;;5100228;28;20096;-84
2022/03/09 01:55:07;;;;;;;10.45;4.80;;;0.80;99.90;;;;;;5115797;28;20031;-83
2022/03/09 01:57:35;;;;;;;9.70;4.30;;;0.70;99.90;;;;;;5115405;28;20031;-83
2022/03/09 02:00:03;;;;;;;7.57;4.05;;;0.70;99.90;;;;;;5115872;28;20047;-83
2022/03/09 02:02:29;;;;;;;10.35;4.68;;;0.60;99.90;;;;;;5115376;28;20562;-83
2022/03/09 02:05:00;;;;;;;9.05;4.50;;;0.60;99.90;;;;;;5115592;28;20208;-83
2022/03/09 02:10:11;;;;;;;7.97;4.53;;;0.50;99.90;;;;;;5114712;28;20034;-83
2022/03/09 02:12:42;;;;;;;7.82;4.50;;;0.50;99.90;;;;;;5097127;28;20262;-83
2022/03/09 02:15:08;;;;;;;9.07;5.07;;;0.40;99.90;;;;;;5115530;28;20149;-83
2022/03/09 02:17:34;;;;;;;11.23;4.50;;;0.40;99.90;;;;;;5096816;28;20043;-83
2022/03/09 02:20:34;;;;;;;8.70;3.95;;;0.30;99.90;;;;;;5115320;28;20027;-83
2022/03/09 02:23:01;;;;;;;8.43;4.63;;;0.30;99.90;;;;;;5114849;28;20051;-83
2022/03/09 02:25:26;;;;;;;5.47;3.60;;;0.30;99.90;;;;;;5115412;28;20232;-83
2022/03/09 02:27:52;;;;;;;9.77;4.70;;;0.30;99.90;;;;;;5115174;28;20023;-83
2022/03/09 02:30:19;;;;;;;5.72;4.18;;;0.30;99.90;;;;;;5115097;28;20507;-83
2022/03/09 02:33:03;;;;;;;10.52;4.15;;;0.30;99.90;;;;;;5114906;28;20028;-83
2022/03/09 02:35:28;;;;;;;9.93;4.57;;;0.20;99.90;;;;;;5114867;28;20035;-83
2022/03/09 02:38:13;;;;;;;7.13;4.65;;;0.20;99.90;;;;;;5114013;28;20031;-83
2022/03/09 02:40:39;;;;;;;11.63;5.03;;;0.20;99.90;;;;;;5114627;28;20031;-83
2022/03/09 02:43:04;;;;;;;14.07;5.07;;;0.10;99.90;;;;;;5096467;28;20502;-83
2022/03/09 02:45:30;;;;;;;11.20;4.80;;;0.20;99.90;;;;;;5114912;28;20032;-83
2022/03/09 02:47:56;;;;;;;7.85;4.38;;;0.20;99.90;;;;;;5114630;28;20099;-83
2022/03/09 02:50:22;;;;;;;10.43;5.45;;;0.20;99.90;;;;;;5114700;28;20047;-83
2022/03/09 02:52:50;;;;;;;6.88;4.35;;;0.20;99.90;;;;;;5114459;28;20076;-83
2022/03/09 02:55:15;;;;;;;11.02;4.72;;;0.20;99.90;;;;;;5096380;28;20019;-83
2022/03/09 02:57:42;;;;;;;7.68;4.57;;;0.10;99.90;;;;;;5114302;28;20475;-83
2022/03/09 03:00:26;;;;;;;9.52;4.97;;;0.10;99.90;;;;;;5114433;28;20023;-83
2022/03/09 03:02:51;;;;;;;9.18;4.60;;;0.00;99.90;;;;;;5114442;28;20066;-84
2022/03/09 03:05:42;;;;;;;10.82;4.70;;;0.00;99.90;;;;;;5114053;28;20020;-83
2022/03/09 03:08:07;;;;;;;8.20;4.45;;;0.00;99.90;;;;;;5114320;28;20028;-83
2022/03/09 03:11:09;;;;;;;6.15;4.43;;;0.00;99.90;;;;;;5114068;28;20072;-84
2022/03/09 03:13:39;;;;;;;9.57;4.10;;;0.00;99.90;;;;;;5114232;28;20027;-83
2022/03/09 03:16:06;;;;;;;9.75;5.20;;;0.00;99.90;;;;;;5095875;28;20019;-84
2022/03/09 03:18:44;;;;;;;7.15;4.07;;;0.00;99.90;;;;;;5114141;28;20035;-83
2022/03/09 03:21:09;;;;;;;10.07;4.40;;;0.00;99.90;;;;;;5113446;28;20531;-84
2022/03/09 03:23:35;;;;;;;9.38;5.30;;;0.00;99.90;;;;;;5113565;28;20020;-83
2022/03/09 03:26:04;;;;;;;6.65;4.28;;;0.00;99.90;;;;;;5114149;28;20020;-84
2022/03/09 03:28:31;;;;;;;6.72;3.95;;;-0.10;99.90;;;;;;5114066;28;20023;-83
2022/03/09 03:30:56;;;;;;;9.70;4.28;;;-0.10;99.90;;;;;;5095714;28;20502;-83
2022/03/09 03:33:47;;;;;;;7.50;4.78;;;-0.10;99.90;;;;;;5114101;28;20024;-83
2022/03/09 03:36:15;;;;;;;11.43;5.95;;;-0.10;99.90;;;;;;5113544;28;20028;-83
2022/03/09 03:38:43;;;;;;;9.68;5.47;;;-0.10;99.90;;;;;;5112745;28;20039;-83
2022/03/09 03:41:09;;;;;;;9.90;5.43;;;-0.20;99.90;;;;;;5113508;28;20023;-83
2022/03/09 03:43:39;;;;;;;12.40;5.63;;;-0.20;99.90;;;;;;5113705;28;20460;-83
2022/03/09 03:46:05;;;;;;;11.27;5.70;;;-0.20;99.90;;;;;;5113798;28;20106;-83
2022/03/09 03:48:30;;;;;;;11.48;5.35;;;-0.30;99.90;;;;;;5113876;28;20424;-83
2022/03/09 03:51:03;;;;;;;6.90;4.50;;;-0.30;99.90;;;;;;5113485;28;20383;-83
2022/03/09 03:53:28;;;;;;;7.97;4.93;;;-0.30;99.90;;;;;;5113342;28;20034;-83
2022/03/09 03:55:54;;;;;;;6.75;5.38;;;-0.20;99.90;;;;;;5095517;28;20020;-83
2022/03/09 03:58:20;;;;;;;7.82;5.00;;;-0.20;99.90;;;;;;5113682;28;20027;-83
2022/03/09 04:00:45;;;;;;;8.48;5.20;;;-0.20;99.90;;;;;;5113624;28;20031;-84
2022/03/09 04:03:12;;;;;;;9.32;5.43;;;-0.20;99.90;;;;;;5095406;28;20015;-84
2022/03/09 04:05:38;;;;;;;14.65;6.90;;;-0.20;99.90;;;;;;5095241;28;20024;-83
2022/03/09 04:08:03;;;;;;;18.95;7.90;;;-0.20;99.90;;;;;;5113386;28;20507;-83
2022/03/09 04:10:54;;;;;;;12.48;7.05;;;-0.20;99.90;;;;;;5113483;28;20383;-83
2022/03/09 04:13:20;;;;;;;11.38;6.97;;;-0.30;99.90;;;;;;5094865;28;20026;-83
2022/03/09 04:15:49;;;;;;;12.90;7.57;;;-0.30;99.90;;;;;;5113280;28;20471;-83
2022/03/09 04:18:14;;;;;;;14.98;8.98;;;-0.30;99.90;;;;;;5113303;28;20023;-83
2022/03/09 04:20:40;;;;;;;16.42;7.85;;;-0.30;99.90;;;;;;5113179;28;20382;-83
2022/03/09 04:23:50;;;;;;;16.58;8.05;;;-0.30;99.90;;;;;;5113339;28;20031;-82
2022/03/09 04:26:15;;;;;;;28.02;8.50;;;-0.20;99.90;;;;;;5113089;28;20411;-83
2022/03/09 04:28:41;;;;;;;11.75;7.55;;;-0.30;99.90;;;;;;5113000;28;20023;-82
2022/03/09 04:31:08;;;;;;;15.38;7.57;;;-0.20;99.90;;;;;;5113392;28;20035;-82
2022/03/09 04:33:33;;;;;;;11.73;6.60;;;-0.20;99.90;;;;;;5113866;28;20024;-82
2022/03/09 04:36:16;;;;;;;14.13;6.93;;;-0.20;99.90;;;;;;5117264;28;20421;-83
2022/03/09 04:38:53;;;;;;;12.57;6.63;;;-0.30;99.90;;;;;;5096797;28;20499;-83
2022/03/09 04:41:19;;;;;;;11.55;6.55;;;-0.30;99.90;;;;;;5103379;28;20037;-83
2022/03/09 04:43:44;;;;;;;13.27;6.80;;;-0.30;99.90;;;;;;5099346;28;20027;-83
2022/03/09 04:46:11;;;;;;;12.85;6.85;;;-0.40;99.90;;;;;;5098996;28;20486;-83
2022/03/09 04:48:37;;;;;;;12.50;6.75;;;-0.40;99.90;;;;;;5117149;28;20027;-83
2022/03/09 04:51:04;;;;;;;11.15;6.10;;;-0.40;99.90;;;;;;5098506;28;20039;-83
2022/03/09 04:53:33;;;;;;;11.07;6.60;;;-0.40;99.90;;;;;;5116668;28;20031;-82
2022/03/09 04:55:58;;;;;;;19.98;6.95;;;-0.40;99.90;;;;;;5116996;28;20020;-82
2022/03/09 04:58:24;;;;;;;16.73;7.35;;;-0.50;99.90;;;;;;5117253;28;20031;-82
2022/03/09 05:00:51;;;;;;;14.20;6.70;;;-0.50;99.90;;;;;;5116957;28;20050;-82
2022/03/09 05:03:16;;;;;;;11.48;7.13;;;-0.50;99.90;;;;;;5098112;28;20164;-83
2022/03/09 05:05:42;;;;;;;12.13;7.28;;;-0.50;99.90;;;;;;5097785;28;20115;-83
2022/03/09 05:08:11;;;;;;;11.57;6.28;;;-0.50;99.90;;;;;;5116552;28;20023;-83
2022/03/09 05:10:37;;;;;;;13.40;6.50;;;-0.50;99.90;;;;;;5116797;28;20027;-83
2022/03/09 05:13:04;;;;;;;11.45;5.97;;;-0.50;99.90;;;;;;5116253;28;20038;-82
2022/03/09 05:15:31;;;;;;;15.25;7.60;;;-0.50;99.90;;;;;;5116737;28;20027;-82
2022/03/09 05:17:57;;;;;;;11.15;6.32;;;-0.40;99.90;;;;;;5098258;28;20034;-83
2022/03/09 05:20:51;;;;;;;11.70;6.97;;;-0.40;99.90;;;;;;5116267;28;20099;-82
2022/03/09 05:23:17;;;;;;;15.15;7.30;;;-0.40;99.90;;;;;;5116311;28;20497;-84
2022/03/09 05:25:42;;;;;;;14.80;8.30;;;-0.40;99.90;;;;;;5116323;28;20015;-84
2022/03/09 05:28:09;;;;;;;12.68;7.03;;;-0.40;99.90;;;;;;5097830;28;20391;-84
2022/03/09 05:30:35;;;;;;;13.88;7.10;;;-0.40;99.90;;;;;;5116232;28;20057;-84
2022/03/09 05:33:00;;;;;;;11.65;7.38;;;-0.40;99.90;;;;;;5116205;28;20112;-83
2022/03/09 05:36:11;;;;;;;20.25;8.68;;;-0.40;99.90;;;;;;5115850;28;20027;-84
2022/03/09 05:39:09;;;;;;;19.27;7.90;;;-0.40;99.90;;;;;;5116312;28;20027;-83
2022/03/09 05:41:35;;;;;;;14.32;8.13;;;-0.40;99.90;;;;;;5115602;28;20489;-84
2022/03/09 05:44:01;;;;;;;15.65;7.93;;;-0.30;99.90;;;;;;5115051;28;20023;-84
2022/03/09 05:46:35;;;;;;;20.10;9.02;;;-0.40;99.90;;;;;;5116185;28;20428;-84
2022/03/09 05:49:01;;;;;;;11.02;7.68;;;-0.40;99.90;;;;;;5115688;28;20027;-83
2022/03/09 05:51:27;;;;;;;14.70;8.95;;;-0.40;99.90;;;;;;5115516;28;20051;-83
2022/03/09 05:53:56;;;;;;;15.27;8.75;;;-0.40;99.90;;;;;;5115681;28;20074;-83
2022/03/09 05:56:21;;;;;;;16.15;9.30;;;-0.40;99.90;;;;;;5115822;28;20081;-83
2022/03/09 05:58:47;;;;;;;13.52;8.23;;;-0.40;99.90;;;;;;5097535;28;20027;-83
2022/03/09 06:01:16;;;;;;;15.07;8.30;;;-0.50;99.90;;;;;;5115495;28;20084;-84
2022/03/09 06:03:41;;;;;;;16.17;8.98;;;-0.50;99.90;;;;;;5097175;28;20119;-83
2022/03/09 06:06:07;;;;;;;15.32;8.95;;;-0.50;99.90;;;;;;5097212;28;20118;-83
2022/03/09 06:08:52;;;;;;;20.20;10.13;;;-0.40;99.90;;;;;;5115749;28;20536;-84
2022/03/09 06:11:17;;;;;;;21.20;11.18;;;-0.30;99.90;;;;;;5086920;28;20036;-83
2022/03/09 06:13:43;;;;;;;40.28;19.17;;;-0.30;99.90;;;;;;5115354;28;20038;-84
2022/03/09 06:16:11;;;;;;;178.57;67.95;;;-0.40;99.90;;;;;;5093002;28;20395;-83
2022/03/09 06:18:36;;;;;;;211.70;75.32;;;-0.40;99.90;;;;;;5096550;28;20041;-83
2022/03/09 06:21:02;;;;;;;146.77;60.10;;;-0.40;99.90;;;;;;5113746;28;20098;-83
2022/03/09 06:23:28;;;;;;;159.50;65.63;;;-0.40;99.90;;;;;;5096419;28;20027;-83
2022/03/09 06:25:53;;;;;;;106.45;43.25;;;-0.30;99.90;;;;;;5115015;28;20083;-83
2022/03/09 06:28:19;;;;;;;94.95;43.47;;;-0.30;99.90;;;;;;5096736;28;20034;-83
2022/03/09 06:30:46;;;;;;;92.90;43.45;;;-0.30;99.90;;;;;;5114896;28;20023;-83
2022/03/09 06:33:12;;;;;;;90.85;42.92;;;-0.30;99.90;;;;;;5095925;28;20563;-83
2022/03/09 06:35:37;;;;;;;100.25;47.50;;;-0.20;99.90;;;;;;5113586;28;20110;-83
2022/03/09 06:38:03;;;;;;;88.90;43.53;;;-0.20;99.90;;;;;;5096328;28;20390;-83
2022/03/09 06:40:29;;;;;;;76.68;35.85;;;-0.20;99.90;;;;;;5114632;28;20429;-83
2022/03/09 06:42:54;;;;;;;76.25;36.05;;;-0.20;99.90;;;;;;5114590;28;20348;-83
2022/03/09 06:45:20;;;;;;;49.75;24.98;;;-0.10;99.90;;;;;;5114827;28;20085;-83
2022/03/09 06:47:46;;;;;;;48.22;24.10;;;-0.10;99.90;;;;;;5114785;28;20055;-84
2022/03/09 06:50:11;;;;;;;38.30;18.83;;;0.00;99.90;;;;;;5114387;28;20031;-83
2022/03/09 06:52:38;;;;;;;51.00;23.25;;;0.00;99.90;;;;;;5096212;28;20023;-83
2022/03/09 06:55:07;;;;;;;34.00;16.98;;;0.10;99.90;;;;;;5114682;28;20420;-83
2022/03/09 06:57:33;;;;;;;27.02;15.35;;;0.10;99.90;;;;;;5113750;28;20051;-83
2022/03/09 07:00:00;;;;;;;31.10;15.07;;;0.20;99.90;;;;;;5114337;28;20028;-83
2022/03/09 07:02:26;;;;;;;30.02;14.30;;;0.30;99.90;;;;;;5114423;28;20040;-84
2022/03/09 07:04:52;;;;;;;20.10;12.75;;;0.30;99.90;;;;;;5114066;28;20083;-84
2022/03/09 07:07:20;;;;;;;18.05;11.20;;;0.30;99.90;;;;;;5096035;28;20027;-83
2022/03/09 07:09:45;;;;;;;27.20;11.98;;;0.40;99.90;;;;;;5114240;28;20091;-83
2022/03/09 07:12:11;;;;;;;21.08;11.70;;;0.50;99.90;;;;;;5113816;28;20153;-84
2022/03/09 07:14:36;;;;;;;20.27;11.18;;;0.60;99.90;;;;;;5095684;28;20172;-83
2022/03/09 07:17:02;;;;;;;27.60;10.27;;;0.70;99.90;;;;;;5113662;28;20032;-83
2022/03/09 07:19:28;;;;;;;17.55;10.85;;;0.80;99.90;;;;;;5113727;28;20431;-84
2022/03/09 07:21:54;;;;;;;19.63;11.35;;;0.90;99.90;;;;;;5095270;28;20029;-84
2022/03/09 07:24:20;;;;;;;18.95;10.77;;;1.00;99.90;;;;;;5113865;28;20023;-83
2022/03/09 07:26:46;;;;;;;19.30;10.05;;;1.00;99.90;;;;;;5113871;28;20043;-84
2022/03/09 07:29:12;;;;;;;18.63;10.63;;;1.10;99.90;;;;;;5095444;28;20024;-83
2022/03/09 07:31:38;;;;;;;22.33;11.23;;;1.20;99.90;;;;;;5113750;28;20368;-83
2022/03/09 07:34:04;;;;;;;24.33;11.57;;;1.30;99.90;;;;;;5095003;28;20024;-84
2022/03/09 07:36:30;;;;;;;23.52;10.95;;;1.40;99.90;;;;;;5113546;28;20031;-84
2022/03/09 07:38:56;;;;;;;20.60;10.00;;;1.50;99.90;;;;;;5113237;28;20043;-83
2022/03/09 07:41:22;;;;;;;17.08;9.75;;;1.70;99.90;;;;;;5095226;28;20371;-83
2022/03/09 07:43:47;;;;;;;22.70;10.90;;;1.90;99.90;;;;;;5113485;28;20088;-83
2022/03/09 07:46:13;;;;;;;20.92;10.65;;;2.10;99.90;;;;;;5113179;28;20372;-84
2022/03/09 07:48:38;;;;;;;22.38;11.32;;;2.30;99.90;;;;;;5113423;28;20479;-84
2022/03/09 07:51:04;;;;;;;20.30;9.80;;;2.50;99.90;;;;;;5112984;28;20081;-84
2022/03/09 07:53:30;;;;;;;20.13;9.82;;;2.80;99.90;;;;;;5113123;28;20471;-84
2022/03/09 07:55:55;;;;;;;15.90;8.65;;;2.90;99.90;;;;;;5113323;28;20027;-84
2022/03/09 07:58:21;;;;;;;17.17;9.30;;;3.10;99.90;;;;;;5113089;28;20384;-84
2022/03/09 08:00:47;;;;;;;20.00;8.63;;;3.20;99.90;;;;;;5113207;28;20026;-84
2022/03/09 08:03:12;;;;;;;16.02;8.55;;;3.40;99.90;;;;;;5112957;28;20067;-84
2022/03/09 08:05:38;;;;;;;16.95;9.75;;;3.60;99.90;;;;;;5112836;28;20019;-84
2022/03/09 08:08:04;;;;;;;19.73;9.35;;;3.60;99.90;;;;;;5112148;28;20107;-84
2022/03/09 08:10:29;;;;;;;14.95;7.13;;;3.80;99.90;;;;;;5112847;28;20030;-84
2022/03/09 08:12:55;;;;;;;17.70;9.20;;;4.00;99.90;;;;;;5112747;28;20020;-85
2022/03/09 08:15:21;;;;;;;17.00;8.77;;;4.10;99.90;;;;;;5094657;28;20035;-85
2022/03/09 08:17:46;;;;;;;16.25;9.05;;;4.10;99.90;;;;;;5094612;28;20073;-84
2022/03/09 08:20:12;;;;;;;14.07;8.43;;;4.20;99.90;;;;;;5112540;28;20382;-84
2022/03/09 08:22:39;;;;;;;16.58;8.10;;;4.30;99.90;;;;;;5112784;28;20020;-84
2022/03/09 08:25:06;;;;;;;15.02;9.00;;;4.30;99.90;;;;;;5112808;28;20069;-85
2022/03/09 08:27:32;;;;;;;23.65;12.15;;;4.40;99.90;;;;;;5112760;28;20022;-84
2022/03/09 08:29:57;;;;;;;27.83;12.88;;;4.40;99.90;;;;;;5112819;28;20429;-85
2022/03/09 08:32:23;;;;;;;25.05;11.93;;;4.60;99.90;;;;;;5094340;28;20016;-85
2022/03/09 08:34:49;;;;;;;21.70;10.20;;;4.70;99.90;;;;;;5094329;28;20020;-85
2022/03/09 08:37:16;;;;;;;23.50;11.35;;;4.70;99.90;;;;;;5112550;28;20031;-85
2022/03/09 08:39:45;;;;;;;18.38;10.55;;;4.70;99.90;;;;;;5112536;28;20433;-85
2022/03/09 08:42:10;;;;;;;17.45;10.02;;;4.70;99.90;;;;;;5112546;28;20478;-85
2022/03/09 08:44:36;;;;;;;18.08;10.18;;;4.70;99.90;;;;;;5094406;28;20024;-85
2022/03/09 08:47:02;;;;;;;16.88;8.50;;;4.80;99.90;;;;;;5112564;28;20092;-84
2022/03/09 08:49:29;;;;;;;16.08;9.00;;;4.80;99.90;;;;;;5112171;28;20038;-85
2022/03/09 08:51:54;;;;;;;17.95;9.10;;;4.90;99.90;;;;;;5112514;28;20161;-84
2022/03/09 08:54:20;;;;;;;18.88;9.18;;;4.90;99.90;;;;;;5122321;28;20511;-82
2022/03/09 08:56:47;;;;;;;13.77;7.82;;;5.00;99.90;;;;;;5112832;28;20028;-82
2022/03/09 08:59:12;;;;;;;13.07;7.72;;;5.00;99.90;;;;;;5106970;28;20060;-82
2022/03/09 09:01:38;;;;;;;13.88;7.60;;;5.10;99.90;;;;;;5116186;28;20372;-82
2022/03/09 09:04:04;;;;;;;11.73;6.65;;;5.20;99.90;;;;;;5110624;28;20826;-82
2022/03/09 09:06:29;;;;;;;9.52;6.30;;;5.40;99.90;;;;;;5107264;28;20047;-82
2022/03/09 09:08:55;;;;;;;12.15;6.43;;;5.40;99.90;;;;;;5114427;28;20379;-83
2022/03/09 09:11:20;;;;;;;13.95;6.70;;;5.40;99.90;;;;;;5113707;28;20092;-83
2022/03/09 09:13:46;;;;;;;12.52;6.07;;;5.60;99.90;;;;;;5093623;28;20030;-83
2022/03/09 09:16:12;;;;;;;10.23;5.60;;;5.60;99.90;;;;;;5123685;28;20027;-83
2022/03/09 09:18:38;;;;;;;10.43;5.80;;;5.70;99.90;;;;;;5119876;28;20388;-83
2022/03/09 09:21:04;;;;;;;10.07;5.75;;;5.70;99.90;;;;;;5131363;27;20046;-82
2022/03/09 09:23:30;;;;;;;9.68;5.32;;;5.80;99.90;;;;;;5135270;27;20406;-83
2022/03/09 09:25:55;;;;;;;9.07;5.78;;;5.80;99.90;;;;;;5115934;28;20027;-83
2022/03/09 09:28:21;;;;;;;8.63;5.57;;;5.80;99.40;;;;;;5097697;28;20046;-83
2022/03/09 09:30:47;;;;;;;13.07;5.93;;;5.90;97.90;;;;;;5116343;27;20118;-82
2022/03/09 09:33:12;;;;;;;11.20;7.35;;;6.00;97.50;;;;;;5115698;28;20467;-82
2022/03/09 09:35:38;;;;;;;10.70;6.47;;;6.00;97.30;;;;;;5133369;27;20059;-83
2022/03/09 09:38:07;;;;;;;11.60;7.70;;;6.00;96.90;;;;;;5136256;27;20080;-83
2022/03/09 09:40:46;;;;;;;13.32;6.65;;;6.20;94.80;;;;;;5100788;28;20134;-83
2022/03/09 09:43:15;;;;;;;14.40;7.35;;;6.20;95.60;;;;;;5115629;28;20399;-82
2022/03/09 09:45:42;;;;;;;12.63;6.55;;;6.30;95.50;;;;;;5120411;27;20111;-82
2022/03/09 09:48:09;;;;;;;15.18;7.15;;;6.40;94.90;;;;;;5097215;28;20035;-82
2022/03/09 09:50:37;;;;;;;12.30;6.72;;;6.60;94.50;;;;;;5130726;27;20023;-82
2022/03/09 09:53:04;;;;;;;17.38;7.32;;;6.60;95.40;;;;;;5135894;27;20069;-82
2022/03/09 09:55:30;;;;;;;12.57;6.65;;;6.60;94.30;;;;;;5120910;27;20161;-85
2022/03/09 09:57:58;;;;;;;15.18;7.70;;;6.70;93.30;;;;;;5097016;28;20028;-83
2022/03/09 10:00:23;;;;;;;13.60;7.93;;;6.80;92.80;;;;;;5111605;28;20114;-83
2022/03/09 10:02:49;;;;;;;16.33;7.18;;;6.70;92.80;;;;;;5099918;28;20150;-83
2022/03/09 10:05:16;;;;;;;16.05;8.13;;;6.80;94.70;;;;;;5116724;27;20152;-83
2022/03/09 10:08:14;;;;;;;23.98;8.43;;;6.90;94.70;;;;;;5132564;27;20097;-82
2022/03/09 10:10:56;;;;;;;14.23;8.07;;;7.00;93.80;;;;;;5126975;27;20049;-83
2022/03/09 10:13:31;;;;;;;14.45;7.85;;;7.10;94.10;;;;;;5130890;27;20026;-83
2022/03/09 10:16:09;;;;;;;13.63;7.60;;;7.10;94.10;;;;;;5116837;27;20085;-83
2022/03/09 10:18:35;;;;;;;13.75;8.27;;;7.20;93.40;;;;;;5114409;28;20020;-83
2022/03/09 10:21:10;;;;;;;15.57;8.20;;;7.20;93.10;;;;;;5096582;28;20020;-83
2022/03/09 10:24:11;;;;;;;26.77;7.90;;;7.20;92.70;;;;;;5114687;28;20098;-83
2022/03/09 10:26:40;;;;;;;11.93;6.75;;;7.30;89.90;;;;;;5099819;28;20023;-83
2022/03/09 10:29:07;;;;;;;12.98;7.78;;;7.30;91.20;;;;;;5114737;28;20023;-83
2022/03/09 10:31:47;;;;;;;20.48;8.13;;;7.40;91.00;;;;;;5113493;28;20540;-83
2022/03/09 10:34:20;;;;;;;14.93;7.47;;;7.40;87.20;;;;;;5095691;28;20024;-83
2022/03/09 10:36:58;;;;;;;14.38;7.88;;;7.50;88.60;;;;;;5114664;28;20027;-83
2022/03/09 10:39:26;;;;;;;13.93;7.20;;;7.60;86.90;;;;;;5095938;28;20391;-83
2022/03/09 10:41:52;;;;;;;15.40;8.10;;;7.60;89.70;;;;;;5096245;28;20502;-83
2022/03/09 10:44:18;;;;;;;15.38;7.15;;;7.70;89.70;;;;;;5114304;28;20019;-83
2022/03/09 10:46:50;;;;;;;17.48;7.43;;;7.80;91.00;;;;;;5096166;28;20024;-83
2022/03/09 10:49:24;;;;;;;12.82;7.07;;;7.70;86.20;;;;;;5095667;28;20087;-84
2022/03/09 10:51:51;;;;;;;14.13;8.00;;;7.80;85.30;;;;;;5114367;28;20103;-83
2022/03/09 10:54:23;;;;;;;15.02;7.15;;;7.80;85.70;;;;;;5114050;28;20027;-83
2022/03/09 10:56:49;;;;;;;19.80;8.80;;;7.80;86.60;;;;;;5096007;28;20042;-83
2022/03/09 10:59:24;;;;;;;11.45;7.47;;;7.90;81.00;;;;;;5114051;28;20019;-82
2022/03/09 11:02:07;;;;;;;13.15;8.05;;;7.90;84.70;;;;;;5114114;28;20077;-84
2022/03/09 11:04:34;;;;;;;11.02;7.45;;;8.00;77.70;;;;;;5113583;28;20360;-84
2022/03/09 11:07:00;;;;;;;14.35;8.43;;;8.00;74.30;;;;;;5114062;28;20417;-84
2022/03/09 11:09:26;;;;;;;11.18;6.80;;;8.00;74.00;;;;;;5095678;28;20035;-84
2022/03/09 11:11:51;;;;;;;12.85;7.43;;;8.10;73.60;;;;;;5114027;28;20023;-84
2022/03/09 11:14:19;;;;;;;15.75;7.70;;;8.10;74.60;;;;;;5113707;28;20054;-84
2022/03/09 11:16:47;;;;;;;13.70;7.22;;;8.10;74.40;;;;;;5113900;28;20106;-84
2022/03/09 11:19:13;;;;;;;12.63;8.02;;;8.10;75.20;;;;;;5113248;28;20536;-84
2022/03/09 11:21:40;;;;;;;12.73;7.70;;;8.10;75.50;;;;;;5113746;28;20016;-84
2022/03/09 11:24:10;;;;;;;12.52;6.97;;;8.10;71.20;;;;;;5113282;28;20387;-84
2022/03/09 11:26:46;;;;;;;11.40;6.88;;;8.20;71.20;;;;;;5113104;28;20047;-85
2022/03/09 11:29:12;;;;;;;14.38;7.55;;;8.30;71.20;;;;;;5113674;28;20035;-85
2022/03/09 11:31:52;;;;;;;15.70;7.63;;;8.30;71.90;;;;;;5094848;28;20026;-85
2022/03/09 11:34:43;;;;;;;19.40;8.10;;;8.30;74.00;;;;;;5116995;27;20043;-85
2022/03/09 11:37:14;;;;;;;17.67;7.57;;;8.30;72.40;;;;;;5094961;27;20024;-85
2022/03/09 11:39:42;;;;;;;15.40;7.78;;;8.40;73.20;;;;;;5100115;28;20130;-85
2022/03/09 11:42:22;;;;;;;17.63;8.00;;;8.40;71.00;;;;;;5090364;28;20107;-85
2022/03/09 11:44:49;;;;;;;12.70;7.65;;;8.40;68.40;;;;;;5100291;28;20223;-85
2022/03/09 11:47:16;;;;;;;15.38;8.00;;;8.40;69.50;;;;;;5111387;28;20372;-85
2022/03/09 11:49:42;;;;;;;14.13;7.93;;;8.40;69.30;;;;;;5113047;28;20035;-85
2022/03/09 11:52:11;;;;;;;14.50;8.30;;;8.50;71.10;;;;;;5112443;28;20031;-85
2022/03/09 11:54:48;;;;;;;13.35;7.15;;;8.60;71.80;;;;;;5092793;28;20054;-85
2022/03/09 11:57:16;;;;;;;15.95;8.48;;;8.60;70.00;;;;;;5092583;28;20063;-86
2022/03/09 12:00:00;;;;;;;12.82;8.52;;;8.70;69.30;;;;;;5105137;28;20032;-85
2022/03/09 12:02:44;;;;;;;15.25;8.18;;;8.70;67.30;;;;;;5105647;28;20123;-86
2022/03/09 12:05:25;;;;;;;12.73;7.70;;;8.80;66.90;;;;;;5092501;28;20378;-85
2022/03/09 12:08:12;;;;;;;18.08;7.10;;;8.80;64.90;;;;;;5095812;28;20104;-87
2022/03/09 12:10:54;;;;;;;12.13;6.93;;;8.90;66.00;;;;;;5095070;28;20027;-89
2022/03/09 12:13:31;;;;;;;13.45;7.45;;;8.90;63.80;;;;;;5071092;28;20036;-87
2022/03/09 12:16:29;;;;;;;18.83;8.50;;;9.00;63.20;;;;;;5088726;28;20026;-86
2022/03/09 12:19:01;;;;;;;15.55;7.72;;;9.10;62.20;;;;;;5112617;28;20368;-86
2022/03/09 12:21:26;;;;;;;16.73;8.70;;;9.20;62.70;;;;;;5098763;28;20427;-86
2022/03/09 12:24:14;;;;;;;12.23;7.28;;;9.20;64.30;;;;;;5092857;28;20127;-86
2022/03/09 12:26:46;;;;;;;14.63;7.60;;;9.20;61.10;;;;;;5092872;28;20032;-86
2022/03/09 12:29:18;;;;;;;12.60;7.45;;;9.30;59.60;;;;;;5091742;28;20418;-86
2022/03/09 12:31:44;;;;;;;13.93;8.35;;;9.30;58.80;;;;;;5105950;28;20461;-86
2022/03/09 12:34:10;;;;;;;10.45;6.55;;;9.30;58.80;;;;;;5112879;28;20024;-86
2022/03/09 12:36:35;;;;;;;13.52;7.80;;;9.30;58.90;;;;;;5097714;28;20028;-86
2022/03/09 12:39:05;;;;;;;20.85;8.02;;;9.40;58.50;;;;;;5092041;28;20647;-85
2022/03/09 12:41:41;;;;;;;13.15;7.65;;;9.40;58.30;;;;;;5125647;28;20101;-86
2022/03/09 12:44:11;;;;;;;13.57;7.25;;;9.50;59.20;;;;;;5133854;28;20027;-87
2022/03/09 12:46:39;;;;;;;16.30;8.15;;;9.60;60.40;;;;;;5132661;28;20038;-86
2022/03/09 12:49:17;;;;;;;13.43;7.95;;;9.70;59.30;;;;;;5101522;28;20035;-86
2022/03/09 12:51:58;;;;;;;20.92;8.18;;;9.70;58.50;;;;;;5126355;28;20027;-86
2022/03/09 12:54:30;;;;;;;17.38;8.00;;;9.80;59.90;;;;;;5133307;27;20481;-86
2022/03/09 12:57:37;;;;;;;14.52;8.18;;;9.80;61.10;;;;;;5122572;27;20067;-86
2022/03/09 13:00:10;;;;;;;16.38;9.23;;;9.90;60.00;;;;;;5116872;28;20027;-86